sensor_id;sensor_type;location;lat;lon;timestamp;pressure;altitude;pressure_sealevel;temperature;humidity
72409;BME280;60402;48.082;11.628;2023-10-09T00:02:28;96019.41;;;13.55;100.00
72409;BME280;60402;48.082;11.628;2023-10-09T00:05:15;96020.94;;;13.43;100.00
72409;BME280;60402;48.082;11.628;2023-10-09T00:08:09;96025.75;;;13.46;100.00
72409;BME280;60402;48.082;11.628;2023-10-09T00:10:54;96004.94;;;13.37;100.00
72409;BME280;60402;48.082;11.628;2023-10-09T00:13:40;96022.91;;;13.46;100.00
72409;BME280;60402;48.082;11.628;2023-10-09T00:16:36;95998.19;;;13.30;100.00
72409;BME280;60402;48.082;11.628;2023-10-09T00:19:28;96000.69;;;13.28;100.00
72409;BME280;60402;48.082;11.628;2023-10-09T00:22:18;95995.25;;;13.34;100.00
72409;BME280;60402;48.082;11.628;2023-10-09T00:25:10;95987.09;;;13.36;100.00
72409;BME280;60402;48.082;11.628;2023-10-09T00:27:56;95991.63;;;13.34;100.00
72409;BME280;60402;48.082;11.628;2023-10-09T00:30:45;95977.31;;;13.24;100.00
72409;BME280;60402;48.082;11.628;2023-10-09T00:33:30;95952.75;;;13.18;100.00
72409;BME280;60402;48.082;11.628;2023-10-09T00:36:16;95959.47;;;13.24;100.00
72409;BME280;60402;48.082;11.628;2023-10-09T00:39:05;95963.19;;;13.21;100.00
72409;BME280;60402;48.082;11.628;2023-10-09T00:42:03;95949.56;;;13.16;100.00
72409;BME280;60402;48.082;11.628;2023-10-09T00:44:51;95956.66;;;13.24;100.00
72409;BME280;60402;48.082;11.628;2023-10-09T00:47:37;95952.91;;;13.27;100.00
72409;BME280;60402;48.082;11.628;2023-10-09T00:50:26;95958.03;;;13.45;100.00
72409;BME280;60402;48.082;11.628;2023-10-09T00:53:12;95935.59;;;13.21;100.00
72409;BME280;60402;48.082;11.628;2023-10-09T00:56:03;95936.69;;;13.27;100.00
72409;BME280;60402;48.082;11.628;2023-10-09T00:59:04;95950.31;;;13.33;100.00
72409;BME280;60402;48.082;11.628;2023-10-09T01:01:54;95940.63;;;13.30;100.00
72409;BME280;60402;48.082;11.628;2023-10-09T01:04:50;95939.75;;;13.33;100.00
72409;BME280;60402;48.082;11.628;2023-10-09T01:07:37;95914.53;;;13.22;100.00
72409;BME280;60402;48.082;11.628;2023-10-09T01:10:25;95925.06;;;13.22;100.00
72409;BME280;60402;48.082;11.628;2023-10-09T01:13:19;95923.84;;;13.23;100.00
72409;BME280;60402;48.082;11.628;2023-10-09T01:16:06;95933.03;;;13.40;100.00
72409;BME280;60402;48.082;11.628;2023-10-09T01:18:54;95909.19;;;13.24;100.00
72409;BME280;60402;48.082;11.628;2023-10-09T01:21:42;95928.16;;;13.40;100.00
72409;BME280;60402;48.082;11.628;2023-10-09T01:24:28;95912.81;;;13.25;100.00
72409;BME280;60402;48.082;11.628;2023-10-09T01:27:17;95910.88;;;13.22;100.00
72409;BME280;60402;48.082;11.628;2023-10-09T01:30:03;95917.03;;;13.33;100.00
72409;BME280;60402;48.082;11.628;2023-10-09T01:32:48;95918.97;;;13.23;100.00
72409;BME280;60402;48.082;11.628;2023-10-09T01:35:34;95897.44;;;13.10;100.00
72409;BME280;60402;48.082;11.628;2023-10-09T01:38:23;95904.72;;;13.11;100.00
72409;BME280;60402;48.082;11.628;2023-10-09T01:41:25;95898.56;;;13.12;100.00
72409;BME280;60402;48.082;11.628;2023-10-09T01:44:11;95911.13;;;13.27;100.00
72409;BME280;60402;48.082;11.628;2023-10-09T01:46:58;95912.50;;;13.23;100.00
72409;BME280;60402;48.082;11.628;2023-10-09T01:49:44;95920.22;;;13.35;100.00
72409;BME280;60402;48.082;11.628;2023-10-09T01:52:34;95898.63;;;13.25;100.00
72409;BME280;60402;48.082;11.628;2023-10-09T01:55:21;95900.56;;;13.28;100.00
72409;BME280;60402;48.082;11.628;2023-10-09T01:58:14;95904.22;;;13.28;100.00
72409;BME280;60402;48.082;11.628;2023-10-09T02:01:08;95905.00;;;13.29;100.00
72409;BME280;60402;48.082;11.628;2023-10-09T02:03:55;95891.69;;;13.13;100.00
72409;BME280;60402;48.082;11.628;2023-10-09T02:06:48;95900.34;;;13.22;100.00
72409;BME280;60402;48.082;11.628;2023-10-09T02:09:38;95898.38;;;13.19;100.00
72409;BME280;60402;48.082;11.628;2023-10-09T02:12:30;95890.31;;;13.18;100.00
72409;BME280;60402;48.082;11.628;2023-10-09T02:15:19;95886.34;;;13.15;100.00
72409;BME280;60402;48.082;11.628;2023-10-09T02:18:24;95870.00;;;13.19;100.00
72409;BME280;60402;48.082;11.628;2023-10-09T02:21:19;95862.38;;;13.16;100.00
72409;BME280;60402;48.082;11.628;2023-10-09T02:24:18;95865.13;;;13.20;100.00
72409;BME280;60402;48.082;11.628;2023-10-09T02:27:24;95876.94;;;13.31;100.00
72409;BME280;60402;48.082;11.628;2023-10-09T02:30:28;95856.66;;;13.33;100.00
72409;BME280;60402;48.082;11.628;2023-10-09T02:33:15;95860.28;;;13.46;100.00
72409;BME280;60402;48.082;11.628;2023-10-09T02:36:13;95849.25;;;13.48;100.00
72409;BME280;60402;48.082;11.628;2023-10-09T02:38:58;95853.91;;;13.54;100.00
72409;BME280;60402;48.082;11.628;2023-10-09T02:41:44;95837.91;;;13.48;100.00
72409;BME280;60402;48.082;11.628;2023-10-09T02:44:35;95847.78;;;13.56;99.61
72409;BME280;60402;48.082;11.628;2023-10-09T02:47:25;95853.47;;;13.56;99.64
72409;BME280;60402;48.082;11.628;2023-10-09T02:50:23;95855.25;;;13.63;99.70
72409;BME280;60402;48.082;11.628;2023-10-09T02:53:13;95845.38;;;13.54;99.48
72409;BME280;60402;48.082;11.628;2023-10-09T02:56:04;95841.31;;;13.55;99.15
72409;BME280;60402;48.082;11.628;2023-10-09T02:58:59;95849.25;;;13.61;99.11
72409;BME280;60402;48.082;11.628;2023-10-09T03:01:51;95833.81;;;13.49;99.04
72409;BME280;60402;48.082;11.628;2023-10-09T03:04:38;95846.63;;;13.53;99.34
72409;BME280;60402;48.082;11.628;2023-10-09T03:07:24;95828.25;;;13.45;99.28
72409;BME280;60402;48.082;11.628;2023-10-09T03:10:10;95831.53;;;13.44;99.39
72409;BME280;60402;48.082;11.628;2023-10-09T03:12:56;95852.44;;;13.50;100.00
72409;BME280;60402;48.082;11.628;2023-10-09T03:15:42;95850.50;;;13.47;99.83
72409;BME280;60402;48.082;11.628;2023-10-09T03:18:29;95835.41;;;13.37;100.00
72409;BME280;60402;48.082;11.628;2023-10-09T03:21:15;95829.53;;;13.32;99.68
72409;BME280;60402;48.082;11.628;2023-10-09T03:24:02;95827.00;;;13.34;98.80
72409;BME280;60402;48.082;11.628;2023-10-09T03:26:50;95823.38;;;13.33;99.54
72409;BME280;60402;48.082;11.628;2023-10-09T03:29:41;95833.69;;;13.40;99.02
72409;BME280;60402;48.082;11.628;2023-10-09T03:32:27;95810.88;;;13.30;97.88
72409;BME280;60402;48.082;11.628;2023-10-09T03:35:12;95811.56;;;13.35;98.39
72409;BME280;60402;48.082;11.628;2023-10-09T03:38:01;95796.38;;;13.28;97.87
72409;BME280;60402;48.082;11.628;2023-10-09T03:41:06;95801.00;;;13.35;97.43
72409;BME280;60402;48.082;11.628;2023-10-09T03:43:52;95785.69;;;13.33;97.15
72409;BME280;60402;48.082;11.628;2023-10-09T03:46:39;95782.38;;;13.34;96.64
72409;BME280;60402;48.082;11.628;2023-10-09T03:49:29;95817.56;;;13.62;95.46
72409;BME280;60402;48.082;11.628;2023-10-09T03:52:15;95802.78;;;13.54;94.88
72409;BME280;60402;48.082;11.628;2023-10-09T03:55:03;95808.72;;;13.60;94.21
72409;BME280;60402;48.082;11.628;2023-10-09T03:57:54;95809.16;;;13.59;94.39
72409;BME280;60402;48.082;11.628;2023-10-09T04:00:42;95808.56;;;13.64;93.93
72409;BME280;60402;48.082;11.628;2023-10-09T04:03:31;95807.91;;;13.60;94.08
72409;BME280;60402;48.082;11.628;2023-10-09T04:06:17;95813.13;;;13.61;94.13
72409;BME280;60402;48.082;11.628;2023-10-09T04:09:04;95800.53;;;13.49;94.37
72409;BME280;60402;48.082;11.628;2023-10-09T04:12:05;95797.84;;;13.46;94.18
72409;BME280;60402;48.082;11.628;2023-10-09T04:14:57;95802.16;;;13.50;93.65
72409;BME280;60402;48.082;11.628;2023-10-09T04:17:46;95803.84;;;13.48;94.01
72409;BME280;60402;48.082;11.628;2023-10-09T04:20:33;95820.28;;;13.53;93.72
72409;BME280;60402;48.082;11.628;2023-10-09T04:23:19;95793.97;;;13.40;94.17
72409;BME280;60402;48.082;11.628;2023-10-09T04:26:20;95802.16;;;13.50;94.04
72409;BME280;60402;48.082;11.628;2023-10-09T04:29:06;95793.06;;;13.43;94.10
72409;BME280;60402;48.082;11.628;2023-10-09T04:31:56;95805.78;;;13.51;93.77
72409;BME280;60402;48.082;11.628;2023-10-09T04:34:42;95808.03;;;13.43;95.02
72409;BME280;60402;48.082;11.628;2023-10-09T04:37:34;95795.69;;;13.24;95.81
72409;BME280;60402;48.082;11.628;2023-10-09T04:40:23;95789.22;;;13.24;95.92
72409;BME280;60402;48.082;11.628;2023-10-09T04:43:33;95809.97;;;13.34;96.08
72409;BME280;60402;48.082;11.628;2023-10-09T04:46:19;95799.66;;;13.27;96.14
72409;BME280;60402;48.082;11.628;2023-10-09T04:49:09;95804.97;;;13.25;96.50
72409;BME280;60402;48.082;11.628;2023-10-09T04:52:12;95797.56;;;13.15;96.75
72409;BME280;60402;48.082;11.628;2023-10-09T04:55:16;95791.56;;;13.13;96.41
72409;BME280;60402;48.082;11.628;2023-10-09T04:58:04;95780.78;;;13.08;95.99
72409;BME280;60402;48.082;11.628;2023-10-09T05:00:53;95807.25;;;13.30;95.98
72409;BME280;60402;48.082;11.628;2023-10-09T05:03:42;95796.53;;;13.21;96.30
72409;BME280;60402;48.082;11.628;2023-10-09T05:06:29;95785.34;;;13.18;96.64
72409;BME280;60402;48.082;11.628;2023-10-09T05:09:34;95807.34;;;13.26;96.38
72409;BME280;60402;48.082;11.628;2023-10-09T05:12:40;95807.56;;;13.19;96.40
72409;BME280;60402;48.082;11.628;2023-10-09T05:15:32;95787.47;;;13.01;97.35
72409;BME280;60402;48.082;11.628;2023-10-09T05:18:20;95788.50;;;13.07;97.12
72409;BME280;60402;48.082;11.628;2023-10-09T05:21:12;95813.81;;;13.14;96.48
72409;BME280;60402;48.082;11.628;2023-10-09T05:23:59;95814.38;;;13.09;97.98
72409;BME280;60402;48.082;11.628;2023-10-09T05:26:59;95808.59;;;13.00;96.97
72409;BME280;60402;48.082;11.628;2023-10-09T05:30:04;95823.78;;;13.06;97.30
72409;BME280;60402;48.082;11.628;2023-10-09T05:33:10;95794.94;;;12.82;97.56
72409;BME280;60402;48.082;11.628;2023-10-09T05:36:13;95833.31;;;12.99;98.17
72409;BME280;60402;48.082;11.628;2023-10-09T05:39:11;95829.34;;;12.97;97.75
72409;BME280;60402;48.082;11.628;2023-10-09T05:42:27;95821.06;;;12.90;98.28
72409;BME280;60402;48.082;11.628;2023-10-09T05:45:27;95828.22;;;12.94;98.45
72409;BME280;60402;48.082;11.628;2023-10-09T05:48:32;95821.84;;;12.90;98.43
72409;BME280;60402;48.082;11.628;2023-10-09T05:51:23;95846.25;;;13.00;98.74
72409;BME280;60402;48.082;11.628;2023-10-09T05:54:27;95822.16;;;12.79;98.66
72409;BME280;60402;48.082;11.628;2023-10-09T05:57:31;95848.19;;;13.03;98.51
72409;BME280;60402;48.082;11.628;2023-10-09T06:00:37;95845.00;;;13.01;98.99
72409;BME280;60402;48.082;11.628;2023-10-09T06:03:41;95840.13;;;13.02;99.39
72409;BME280;60402;48.082;11.628;2023-10-09T06:06:57;95847.50;;;13.12;99.84
72409;BME280;60402;48.082;11.628;2023-10-09T06:09:46;95817.09;;;13.00;100.00
72409;BME280;60402;48.082;11.628;2023-10-09T06:12:38;95838.09;;;13.15;99.85
72409;BME280;60402;48.082;11.628;2023-10-09T06:15:36;95846.97;;;13.30;99.40
72409;BME280;60402;48.082;11.628;2023-10-09T06:18:30;95837.69;;;13.29;99.38
72409;BME280;60402;48.082;11.628;2023-10-09T06:21:21;95852.00;;;13.51;98.24
72409;BME280;60402;48.082;11.628;2023-10-09T06:24:45;95829.16;;;13.55;98.19
72409;BME280;60402;48.082;11.628;2023-10-09T06:27:39;95836.72;;;13.84;97.23
72409;BME280;60402;48.082;11.628;2023-10-09T06:30:27;95841.19;;;14.06;95.68
72409;BME280;60402;48.082;11.628;2023-10-09T06:33:14;95851.44;;;14.39;94.56
72409;BME280;60402;48.082;11.628;2023-10-09T06:36:14;95833.44;;;14.54;92.69
72409;BME280;60402;48.082;11.628;2023-10-09T06:39:03;95829.13;;;14.72;91.23
72409;BME280;60402;48.082;11.628;2023-10-09T06:42:07;95822.59;;;14.84;91.33
72409;BME280;60402;48.082;11.628;2023-10-09T06:45:16;95857.88;;;15.18;89.88
72409;BME280;60402;48.082;11.628;2023-10-09T06:48:02;95836.44;;;15.26;88.95
72409;BME280;60402;48.082;11.628;2023-10-09T06:51:29;95829.66;;;15.32;88.06
72409;BME280;60402;48.082;11.628;2023-10-09T06:54:10;95841.22;;;15.69;86.38
72409;BME280;60402;48.082;11.628;2023-10-09T06:57:00;95853.47;;;15.88;83.63
72409;BME280;60402;48.082;11.628;2023-10-09T06:59:58;95848.75;;;16.13;82.58
72409;BME280;60402;48.082;11.628;2023-10-09T07:03:03;95849.41;;;16.17;82.06
72409;BME280;60402;48.082;11.628;2023-10-09T07:06:09;95856.69;;;16.27;81.44
72409;BME280;60402;48.082;11.628;2023-10-09T07:08:56;95833.09;;;16.26;81.31
72409;BME280;60402;48.082;11.628;2023-10-09T07:11:52;95850.88;;;16.40;81.12
72409;BME280;60402;48.082;11.628;2023-10-09T07:14:37;95855.00;;;16.66;80.21
72409;BME280;60402;48.082;11.628;2023-10-09T07:17:23;95852.00;;;16.88;79.73
72409;BME280;60402;48.082;11.628;2023-10-09T07:20:28;95841.13;;;17.29;76.67
72409;BME280;60402;48.082;11.628;2023-10-09T07:23:23;95877.75;;;17.91;75.85
72409;BME280;60402;48.082;11.628;2023-10-09T07:26:08;95868.75;;;18.41;73.29
72409;BME280;60402;48.082;11.628;2023-10-09T07:29:04;95865.88;;;19.03;72.07
72409;BME280;60402;48.082;11.628;2023-10-09T07:32:03;95874.69;;;19.44;69.94
72409;BME280;60402;48.082;11.628;2023-10-09T07:34:57;95872.88;;;20.06;69.04
72409;BME280;60402;48.082;11.628;2023-10-09T07:37:44;95870.22;;;21.45;63.50
72409;BME280;60402;48.082;11.628;2023-10-09T07:40:36;95874.69;;;22.09;61.90
72409;BME280;60402;48.082;11.628;2023-10-09T07:43:41;95873.38;;;23.67;55.25
72409;BME280;60402;48.082;11.628;2023-10-09T07:46:26;95861.28;;;23.85;54.76
72409;BME280;60402;48.082;11.628;2023-10-09T07:49:18;95870.94;;;25.83;48.93
72409;BME280;60402;48.082;11.628;2023-10-09T07:52:15;95871.78;;;27.55;43.94
72409;BME280;60402;48.082;11.628;2023-10-09T07:55:01;95871.88;;;27.30;42.06
72409;BME280;60402;48.082;11.628;2023-10-09T07:57:47;95879.94;;;26.69;43.04
72409;BME280;60402;48.082;11.628;2023-10-09T08:00:37;95870.38;;;26.20;42.75
72409;BME280;60402;48.082;11.628;2023-10-09T08:03:43;95896.19;;;25.82;43.25
72409;BME280;60402;48.082;11.628;2023-10-09T08:06:31;95889.59;;;24.65;45.64
72409;BME280;60402;48.082;11.628;2023-10-09T08:09:29;95885.38;;;24.72;45.53
72409;BME280;60402;48.082;11.628;2023-10-09T08:12:31;95888.00;;;24.81;44.47
72409;BME280;60402;48.082;11.628;2023-10-09T08:15:32;95885.44;;;24.21;45.79
72409;BME280;60402;48.082;11.628;2023-10-09T08:18:36;95882.81;;;23.79;46.43
72409;BME280;60402;48.082;11.628;2023-10-09T08:21:30;95899.03;;;23.59;47.36
72409;BME280;60402;48.082;11.628;2023-10-09T08:24:30;95909.16;;;23.27;47.45
72409;BME280;60402;48.082;11.628;2023-10-09T08:27:28;95908.34;;;23.15;47.88
72409;BME280;60402;48.082;11.628;2023-10-09T08:30:16;95900.50;;;23.15;48.95
72409;BME280;60402;48.082;11.628;2023-10-09T08:33:02;95910.97;;;23.18;48.83
72409;BME280;60402;48.082;11.628;2023-10-09T08:36:10;95898.78;;;24.64;45.99
72409;BME280;60402;48.082;11.628;2023-10-09T08:39:00;95891.09;;;24.89;44.38
72409;BME280;60402;48.082;11.628;2023-10-09T08:41:58;95887.84;;;25.20;44.36
72409;BME280;60402;48.082;11.628;2023-10-09T08:44:46;95894.84;;;24.67;43.80
72409;BME280;60402;48.082;11.628;2023-10-09T08:47:34;95914.09;;;24.42;43.69
72409;BME280;60402;48.082;11.628;2023-10-09T08:50:21;95900.47;;;25.23;43.32
72409;BME280;60402;48.082;11.628;2023-10-09T08:53:07;95903.03;;;25.38;42.70
72409;BME280;60402;48.082;11.628;2023-10-09T08:55:53;95908.44;;;24.94;42.91
72409;BME280;60402;48.082;11.628;2023-10-09T08:58:39;95897.53;;;24.20;44.34
72409;BME280;60402;48.082;11.628;2023-10-09T09:01:26;95923.84;;;23.29;46.62
72409;BME280;60402;48.082;11.628;2023-10-09T09:04:40;95923.50;;;23.10;48.11
72409;BME280;60402;48.082;11.628;2023-10-09T09:07:27;95911.91;;;22.50;49.13
72409;BME280;60402;48.082;11.628;2023-10-09T09:10:16;95919.69;;;22.38;49.89
72409;BME280;60402;48.082;11.628;2023-10-09T09:13:16;95927.88;;;22.14;51.33
72409;BME280;60402;48.082;11.628;2023-10-09T09:16:04;95915.19;;;22.00;50.97
72409;BME280;60402;48.082;11.628;2023-10-09T09:18:55;95908.53;;;22.14;50.75
72409;BME280;60402;48.082;11.628;2023-10-09T09:21:51;95915.34;;;21.91;51.56
72409;BME280;60402;48.082;11.628;2023-10-09T09:24:41;95910.31;;;21.80;51.85
72409;BME280;60402;48.082;11.628;2023-10-09T09:27:46;95927.69;;;21.97;50.49
72409;BME280;60402;48.082;11.628;2023-10-09T09:30:41;95924.94;;;21.82;52.02
72409;BME280;60402;48.082;11.628;2023-10-09T09:33:27;95934.63;;;21.79;52.15
72409;BME280;60402;48.082;11.628;2023-10-09T09:36:16;95935.53;;;21.97;51.37
72409;BME280;60402;48.082;11.628;2023-10-09T09:39:01;95932.66;;;21.97;51.87
72409;BME280;60402;48.082;11.628;2023-10-09T09:41:50;95938.88;;;22.15;52.09
72409;BME280;60402;48.082;11.628;2023-10-09T09:44:37;95915.97;;;22.01;51.43
72409;BME280;60402;48.082;11.628;2023-10-09T09:47:31;95931.38;;;22.29;51.31
72409;BME280;60402;48.082;11.628;2023-10-09T09:50:21;95914.09;;;22.24;52.45
72409;BME280;60402;48.082;11.628;2023-10-09T09:53:15;95898.09;;;22.17;51.26
72409;BME280;60402;48.082;11.628;2023-10-09T09:56:04;95923.50;;;22.24;51.03
72409;BME280;60402;48.082;11.628;2023-10-09T09:58:51;95931.69;;;22.31;51.49
72409;BME280;60402;48.082;11.628;2023-10-09T10:01:42;95935.50;;;22.17;52.27
72409;BME280;60402;48.082;11.628;2023-10-09T10:04:31;95935.06;;;22.30;51.45
72409;BME280;60402;48.082;11.628;2023-10-09T10:07:22;95926.72;;;22.06;51.58
72409;BME280;60402;48.082;11.628;2023-10-09T10:10:38;95951.09;;;22.10;52.47
72409;BME280;60402;48.082;11.628;2023-10-09T10:16:27;95914.38;;;22.00;51.64
72409;BME280;60402;48.082;11.628;2023-10-09T10:19:19;95928.69;;;22.20;51.61
72409;BME280;60402;48.082;11.628;2023-10-09T10:22:27;95923.59;;;22.04;51.67
72409;BME280;60402;48.082;11.628;2023-10-09T10:28:22;95932.28;;;22.41;50.77
72409;BME280;60402;48.082;11.628;2023-10-09T10:31:56;95929.56;;;22.63;49.64
72409;BME280;60402;48.082;11.628;2023-10-09T10:40:32;95926.66;;;23.06;48.29
72409;BME280;60402;48.082;11.628;2023-10-09T10:43:24;95926.91;;;23.03;46.10
72409;BME280;60402;48.082;11.628;2023-10-09T10:46:28;95915.38;;;23.03;47.44
72409;BME280;60402;48.082;11.628;2023-10-09T10:49:22;95920.16;;;23.23;46.53
72409;BME280;60402;48.082;11.628;2023-10-09T10:52:20;95909.09;;;23.10;45.51
72409;BME280;60402;48.082;11.628;2023-10-09T10:55:13;95918.03;;;23.12;46.44
72409;BME280;60402;48.082;11.628;2023-10-09T10:58:03;95902.72;;;22.89;44.53
72409;BME280;60402;48.082;11.628;2023-10-09T11:01:00;95905.63;;;22.94;44.46
72409;BME280;60402;48.082;11.628;2023-10-09T11:03:57;95894.50;;;22.76;44.22
72409;BME280;60402;48.082;11.628;2023-10-09T11:06:51;95908.25;;;22.92;44.31
72409;BME280;60402;48.082;11.628;2023-10-09T11:12:44;95908.50;;;22.94;44.53
72409;BME280;60402;48.082;11.628;2023-10-09T11:15:40;95894.28;;;22.85;44.58
72409;BME280;60402;48.082;11.628;2023-10-09T11:18:39;95901.19;;;22.99;45.15
72409;BME280;60402;48.082;11.628;2023-10-09T11:21:28;95903.00;;;22.91;43.87
72409;BME280;60402;48.082;11.628;2023-10-09T11:24:17;95899.31;;;22.90;44.57
72409;BME280;60402;48.082;11.628;2023-10-09T11:27:11;95903.09;;;23.13;44.27
72409;BME280;60402;48.082;11.628;2023-10-09T11:30:04;95896.38;;;23.44;45.48
72409;BME280;60402;48.082;11.628;2023-10-09T11:33:07;95872.28;;;23.53;44.43
72409;BME280;60402;48.082;11.628;2023-10-09T11:35:59;95890.63;;;23.50;43.87
72409;BME280;60402;48.082;11.628;2023-10-09T11:38:46;95864.13;;;23.40;42.89
72409;BME280;60402;48.082;11.628;2023-10-09T11:41:39;95884.91;;;23.78;43.15
72409;BME280;60402;48.082;11.628;2023-10-09T11:44:41;95899.03;;;23.54;43.48
72409;BME280;60402;48.082;11.628;2023-10-09T11:47:34;95881.47;;;23.63;41.81
72409;BME280;60402;48.082;11.628;2023-10-09T11:50:20;95885.16;;;23.69;42.10
72409;BME280;60402;48.082;11.628;2023-10-09T11:53:16;95868.06;;;23.54;40.98
72409;BME280;60402;48.082;11.628;2023-10-09T11:56:08;95862.34;;;23.71;42.21
72409;BME280;60402;48.082;11.628;2023-10-09T11:58:58;95879.94;;;23.73;42.74
72409;BME280;60402;48.082;11.628;2023-10-09T12:01:50;95885.44;;;23.82;40.78
72409;BME280;60402;48.082;11.628;2023-10-09T12:04:41;95878.09;;;23.64;41.01
72409;BME280;60402;48.082;11.628;2023-10-09T12:07:29;95871.44;;;23.30;41.67
72409;BME280;60402;48.082;11.628;2023-10-09T12:10:15;95887.41;;;23.26;41.34
72409;BME280;60402;48.082;11.628;2023-10-09T12:13:01;95862.69;;;23.02;41.19
72409;BME280;60402;48.082;11.628;2023-10-09T12:15:50;95880.56;;;23.23;41.16
72409;BME280;60402;48.082;11.628;2023-10-09T12:18:37;95876.91;;;23.17;41.89
72409;BME280;60402;48.082;11.628;2023-10-09T12:21:25;95863.03;;;23.21;41.38
72409;BME280;60402;48.082;11.628;2023-10-09T12:24:13;95872.16;;;23.14;40.52
72409;BME280;60402;48.082;11.628;2023-10-09T12:27:03;95878.38;;;22.95;41.66
72409;BME280;60402;48.082;11.628;2023-10-09T12:29:56;95857.72;;;23.03;40.92
72409;BME280;60402;48.082;11.628;2023-10-09T12:32:43;95866.34;;;22.91;41.87
72409;BME280;60402;48.082;11.628;2023-10-09T12:35:29;95881.53;;;22.92;42.49
72409;BME280;60402;48.082;11.628;2023-10-09T12:38:19;95857.84;;;22.77;41.15
72409;BME280;60402;48.082;11.628;2023-10-09T12:41:08;95878.38;;;22.90;39.97
72409;BME280;60402;48.082;11.628;2023-10-09T12:44:05;95886.38;;;22.69;41.31
72409;BME280;60402;48.082;11.628;2023-10-09T12:46:50;95875.19;;;22.39;42.62
72409;BME280;60402;48.082;11.628;2023-10-09T12:49:39;95882.59;;;22.52;42.25
72409;BME280;60402;48.082;11.628;2023-10-09T12:52:27;95878.31;;;22.36;42.00
72409;BME280;60402;48.082;11.628;2023-10-09T12:55:15;95887.94;;;22.27;41.74
72409;BME280;60402;48.082;11.628;2023-10-09T12:58:04;95878.03;;;22.34;41.52
72409;BME280;60402;48.082;11.628;2023-10-09T13:00:53;95881.25;;;22.10;42.55
72409;BME280;60402;48.082;11.628;2023-10-09T13:03:39;95871.72;;;21.92;43.33
72409;BME280;60402;48.082;11.628;2023-10-09T13:06:25;95884.28;;;21.95;43.62
72409;BME280;60402;48.082;11.628;2023-10-09T13:09:12;95878.78;;;21.97;43.11
72409;BME280;60402;48.082;11.628;2023-10-09T13:12:01;95891.03;;;21.92;43.14
72409;BME280;60402;48.082;11.628;2023-10-09T13:14:47;95889.19;;;21.89;43.17
72409;BME280;60402;48.082;11.628;2023-10-09T13:17:35;95889.75;;;21.93;43.40
72409;BME280;60402;48.082;11.628;2023-10-09T13:20:21;95884.78;;;21.62;44.06
72409;BME280;60402;48.082;11.628;2023-10-09T13:23:07;95887.38;;;21.60;44.54
72409;BME280;60402;48.082;11.628;2023-10-09T13:25:53;95883.88;;;21.50;44.65
72409;BME280;60402;48.082;11.628;2023-10-09T13:28:39;95895.19;;;21.59;44.78
72409;BME280;60402;48.082;11.628;2023-10-09T13:31:26;95896.22;;;21.56;45.66
72409;BME280;60402;48.082;11.628;2023-10-09T13:34:13;95904.50;;;21.49;45.91
72409;BME280;60402;48.082;11.628;2023-10-09T13:37:02;95910.38;;;21.60;45.81
72409;BME280;60402;48.082;11.628;2023-10-09T13:39:56;95892.78;;;21.52;45.74
72409;BME280;60402;48.082;11.628;2023-10-09T13:42:43;95910.31;;;21.54;45.63
72409;BME280;60402;48.082;11.628;2023-10-09T13:45:29;95898.91;;;21.39;46.45
72409;BME280;60402;48.082;11.628;2023-10-09T13:48:15;95904.28;;;21.52;46.64
72409;BME280;60402;48.082;11.628;2023-10-09T13:51:12;95895.13;;;21.54;46.28
72409;BME280;60402;48.082;11.628;2023-10-09T13:54:04;95882.69;;;21.36;45.92
72409;BME280;60402;48.082;11.628;2023-10-09T13:56:52;95897.28;;;21.33;46.66
72409;BME280;60402;48.082;11.628;2023-10-09T13:59:38;95911.44;;;21.16;47.47
72409;BME280;60402;48.082;11.628;2023-10-09T14:02:34;95905.50;;;20.99;48.51
72409;BME280;60402;48.082;11.628;2023-10-09T14:05:20;95915.03;;;21.11;50.41
72409;BME280;60402;48.082;11.628;2023-10-09T14:08:05;95910.09;;;20.91;55.88
72409;BME280;60402;48.082;11.628;2023-10-09T14:10:54;95917.56;;;20.83;57.55
72409;BME280;60402;48.082;11.628;2023-10-09T14:13:40;95916.31;;;20.49;59.85
72409;BME280;60402;48.082;11.628;2023-10-09T14:16:30;95893.97;;;20.38;61.44
72409;BME280;60402;48.082;11.628;2023-10-09T14:19:18;95863.38;;;20.35;60.48
72409;BME280;60402;48.082;11.628;2023-10-09T14:22:06;95863.06;;;20.48;59.60
72409;BME280;60402;48.082;11.628;2023-10-09T14:24:54;95849.03;;;20.35;60.11
72409;BME280;60402;48.082;11.628;2023-10-09T14:27:44;95856.00;;;20.28;60.89
72409;BME280;60402;48.082;11.628;2023-10-09T14:30:29;95840.47;;;20.20;61.59
72409;BME280;60402;48.082;11.628;2023-10-09T14:33:17;95830.72;;;20.32;59.70
72409;BME280;60402;48.082;11.628;2023-10-09T14:36:08;95829.00;;;20.40;58.42
72409;BME280;60402;48.082;11.628;2023-10-09T14:38:53;95815.59;;;20.32;58.05
72409;BME280;60402;48.082;11.628;2023-10-09T14:41:41;95814.34;;;20.18;59.03
72409;BME280;60402;48.082;11.628;2023-10-09T14:44:28;95812.56;;;20.21;59.79
72409;BME280;60402;48.082;11.628;2023-10-09T14:47:16;95818.19;;;20.30;60.66
72409;BME280;60402;48.082;11.628;2023-10-09T14:50:04;95794.97;;;20.13;60.64
72409;BME280;60402;48.082;11.628;2023-10-09T14:52:54;95802.47;;;20.25;59.75
72409;BME280;60402;48.082;11.628;2023-10-09T14:55:39;95797.94;;;20.19;60.37
72409;BME280;60402;48.082;11.628;2023-10-09T14:58:27;95816.47;;;20.38;59.80
72409;BME280;60402;48.082;11.628;2023-10-09T15:01:15;95826.28;;;20.31;59.70
72409;BME280;60402;48.082;11.628;2023-10-09T15:04:04;95816.88;;;20.10;60.16
72409;BME280;60402;48.082;11.628;2023-10-09T15:06:50;95839.75;;;20.25;61.01
72409;BME280;60402;48.082;11.628;2023-10-09T15:09:36;95834.78;;;20.05;63.63
72409;BME280;60402;48.082;11.628;2023-10-09T15:12:22;95852.31;;;19.92;65.47